sensor_id;sensor_type;location;lat;lon;timestamp;temperature;humidity
36442;DHT22;73131;50.820;16.274;2024-02-23T00:00:21;9.50;99.90
36442;DHT22;73131;50.820;16.274;2024-02-23T00:03:42;9.50;99.90
36442;DHT22;73131;50.820;16.274;2024-02-23T00:06:43;9.50;99.90
36442;DHT22;73131;50.820;16.274;2024-02-23T00:09:44;9.50;99.90
36442;DHT22;73131;50.820;16.274;2024-02-23T00:12:45;9.50;99.90
36442;DHT22;73131;50.820;16.274;2024-02-23T00:15:48;9.50;99.90
36442;DHT22;73131;50.820;16.274;2024-02-23T00:18:49;9.50;99.90
36442;DHT22;73131;50.820;16.274;2024-02-23T00:21:50;9.50;99.90
36442;DHT22;73131;50.820;16.274;2024-02-23T00:24:53;9.40;99.90
36442;DHT22;73131;50.820;16.274;2024-02-23T00:27:56;9.40;99.90
36442;DHT22;73131;50.820;16.274;2024-02-23T00:31:00;9.40;99.90
36442;DHT22;73131;50.820;16.274;2024-02-23T00:34:01;9.40;99.90
36442;DHT22;73131;50.820;16.274;2024-02-23T00:37:02;9.40;99.90
36442;DHT22;73131;50.820;16.274;2024-02-23T00:40:06;9.40;99.90
36442;DHT22;73131;50.820;16.274;2024-02-23T00:43:10;9.40;99.90
36442;DHT22;73131;50.820;16.274;2024-02-23T00:46:11;9.40;99.90
36442;DHT22;73131;50.820;16.274;2024-02-23T00:49:12;9.30;99.90
36442;DHT22;73131;50.820;16.274;2024-02-23T00:52:14;9.30;99.90
36442;DHT22;73131;50.820;16.274;2024-02-23T00:55:15;9.40;99.90
36442;DHT22;73131;50.820;16.274;2024-02-23T00:58:18;9.30;99.90
36442;DHT22;73131;50.820;16.274;2024-02-23T01:01:19;9.40;99.90
36442;DHT22;73131;50.820;16.274;2024-02-23T01:04:23;9.40;99.90
36442;DHT22;73131;50.820;16.274;2024-02-23T01:07:24;9.40;99.90
36442;DHT22;73131;50.820;16.274;2024-02-23T01:10:26;9.40;99.90
36442;DHT22;73131;50.820;16.274;2024-02-23T01:13:29;9.50;99.90
36442;DHT22;73131;50.820;16.274;2024-02-23T01:16:30;9.50;99.90
36442;DHT22;73131;50.820;16.274;2024-02-23T01:19:33;9.50;99.90
36442;DHT22;73131;50.820;16.274;2024-02-23T01:22:34;9.50;99.90
36442;DHT22;73131;50.820;16.274;2024-02-23T01:25:35;9.50;99.90
36442;DHT22;73131;50.820;16.274;2024-02-23T01:28:39;9.50;99.90
36442;DHT22;73131;50.820;16.274;2024-02-23T01:31:42;9.40;99.90
36442;DHT22;73131;50.820;16.274;2024-02-23T01:34:43;9.40;99.90
36442;DHT22;73131;50.820;16.274;2024-02-23T01:37:46;9.30;99.90
36442;DHT22;73131;50.820;16.274;2024-02-23T01:40:49;9.30;99.90
36442;DHT22;73131;50.820;16.274;2024-02-23T01:43:50;9.30;99.90
36442;DHT22;73131;50.820;16.274;2024-02-23T01:46:52;9.20;99.90
36442;DHT22;73131;50.820;16.274;2024-02-23T01:49:57;9.20;99.90
36442;DHT22;73131;50.820;16.274;2024-02-23T01:53:01;9.20;99.90
36442;DHT22;73131;50.820;16.274;2024-02-23T01:56:03;9.20;99.90
36442;DHT22;73131;50.820;16.274;2024-02-23T01:59:06;9.30;99.90
36442;DHT22;73131;50.820;16.274;2024-02-23T02:02:09;9.30;99.90
36442;DHT22;73131;50.820;16.274;2024-02-23T02:05:15;9.30;99.90
36442;DHT22;73131;50.820;16.274;2024-02-23T02:08:19;9.30;99.90
36442;DHT22;73131;50.820;16.274;2024-02-23T02:11:21;9.30;99.90
36442;DHT22;73131;50.820;16.274;2024-02-23T02:14:22;9.40;99.90
36442;DHT22;73131;50.820;16.274;2024-02-23T02:17:27;9.40;99.90
36442;DHT22;73131;50.820;16.274;2024-02-23T02:20:33;9.40;99.90
36442;DHT22;73131;50.820;16.274;2024-02-23T02:23:34;9.60;99.90
36442;DHT22;73131;50.820;16.274;2024-02-23T02:26:35;9.60;99.90
36442;DHT22;73131;50.820;16.274;2024-02-23T02:29:39;9.70;99.90
36442;DHT22;73131;50.820;16.274;2024-02-23T02:32:40;9.80;99.90
36442;DHT22;73131;50.820;16.274;2024-02-23T02:35:42;9.80;99.90
36442;DHT22;73131;50.820;16.274;2024-02-23T02:38:42;9.80;99.90
36442;DHT22;73131;50.820;16.274;2024-02-23T02:41:44;9.70;99.90
36442;DHT22;73131;50.820;16.274;2024-02-23T02:44:47;9.70;99.90
36442;DHT22;73131;50.820;16.274;2024-02-23T02:47:50;9.70;99.90
36442;DHT22;73131;50.820;16.274;2024-02-23T02:50:51;9.70;99.90
36442;DHT22;73131;50.820;16.274;2024-02-23T02:53:53;9.80;99.90
36442;DHT22;73131;50.820;16.274;2024-02-23T02:56:53;9.80;99.90
36442;DHT22;73131;50.820;16.274;2024-02-23T02:59:55;9.80;99.90
36442;DHT22;73131;50.820;16.274;2024-02-23T03:02:58;9.80;99.90
36442;DHT22;73131;50.820;16.274;2024-02-23T03:05:59;9.70;99.90
36442;DHT22;73131;50.820;16.274;2024-02-23T03:09:00;9.70;99.90
36442;DHT22;73131;50.820;16.274;2024-02-23T03:12:02;9.70;99.90
36442;DHT22;73131;50.820;16.274;2024-02-23T03:15:03;9.70;99.90
36442;DHT22;73131;50.820;16.274;2024-02-23T03:18:07;9.70;99.90
36442;DHT22;73131;50.820;16.274;2024-02-23T03:21:10;9.70;99.90
36442;DHT22;73131;50.820;16.274;2024-02-23T03:24:17;9.80;99.90
36442;DHT22;73131;50.820;16.274;2024-02-23T03:27:26;9.80;99.90
36442;DHT22;73131;50.820;16.274;2024-02-23T03:30:28;9.80;99.90
36442;DHT22;73131;50.820;16.274;2024-02-23T03:33:29;9.80;99.90
36442;DHT22;73131;50.820;16.274;2024-02-23T03:36:30;9.70;99.90
36442;DHT22;73131;50.820;16.274;2024-02-23T03:39:31;9.70;99.90
36442;DHT22;73131;50.820;16.274;2024-02-23T03:42:33;9.70;99.90
36442;DHT22;73131;50.820;16.274;2024-02-23T03:45:34;9.70;99.90
36442;DHT22;73131;50.820;16.274;2024-02-23T03:48:35;9.70;99.90
36442;DHT22;73131;50.820;16.274;2024-02-23T03:51:37;9.70;99.90
36442;DHT22;73131;50.820;16.274;2024-02-23T03:54:40;9.80;99.90
36442;DHT22;73131;50.820;16.274;2024-02-23T03:57:41;9.60;99.90
36442;DHT22;73131;50.820;16.274;2024-02-23T04:00:43;9.60;99.90
36442;DHT22;73131;50.820;16.274;2024-02-23T04:03:44;9.60;99.90
36442;DHT22;73131;50.820;16.274;2024-02-23T04:06:45;9.50;99.90
36442;DHT22;73131;50.820;16.274;2024-02-23T04:09:46;9.50;99.90
36442;DHT22;73131;50.820;16.274;2024-02-23T04:12:53;9.50;99.90
36442;DHT22;73131;50.820;16.274;2024-02-23T04:15:54;9.50;99.90
36442;DHT22;73131;50.820;16.274;2024-02-23T04:18:55;7.00;99.90
36442;DHT22;73131;50.820;16.274;2024-02-23T04:21:56;9.80;99.90
36442;DHT22;73131;50.820;16.274;2024-02-23T04:24:58;9.90;99.90
36442;DHT22;73131;50.820;16.274;2024-02-23T04:27:59;10.00;99.90
36442;DHT22;73131;50.820;16.274;2024-02-23T04:31:00;9.90;99.90
36442;DHT22;73131;50.820;16.274;2024-02-23T04:34:04;9.80;99.90
36442;DHT22;73131;50.820;16.274;2024-02-23T04:37:05;9.80;99.90
36442;DHT22;73131;50.820;16.274;2024-02-23T04:40:07;9.70;99.90
36442;DHT22;73131;50.820;16.274;2024-02-23T04:43:10;9.70;99.90
36442;DHT22;73131;50.820;16.274;2024-02-23T04:46:11;9.70;99.90
36442;DHT22;73131;50.820;16.274;2024-02-23T04:49:13;9.70;99.90
36442;DHT22;73131;50.820;16.274;2024-02-23T04:52:14;9.70;99.90
36442;DHT22;73131;50.820;16.274;2024-02-23T04:55:18;9.70;99.90
36442;DHT22;73131;50.820;16.274;2024-02-23T04:58:21;9.60;99.90
36442;DHT22;73131;50.820;16.274;2024-02-23T05:01:23;9.60;99.90
36442;DHT22;73131;50.820;16.274;2024-02-23T05:04:23;9.60;99.90
36442;DHT22;73131;50.820;16.274;2024-02-23T05:07:25;9.60;99.90
36442;DHT22;73131;50.820;16.274;2024-02-23T05:10:26;9.60;99.90
36442;DHT22;73131;50.820;16.274;2024-02-23T05:13:29;9.50;99.90
36442;DHT22;73131;50.820;16.274;2024-02-23T05:16:33;9.40;99.90
36442;DHT22;73131;50.820;16.274;2024-02-23T05:19:34;9.50;99.90
36442;DHT22;73131;50.820;16.274;2024-02-23T05:22:39;9.40;99.90
36442;DHT22;73131;50.820;16.274;2024-02-23T05:25:43;9.30;99.90
36442;DHT22;73131;50.820;16.274;2024-02-23T05:28:44;9.30;99.90
36442;DHT22;73131;50.820;16.274;2024-02-23T05:31:50;9.30;99.90
36442;DHT22;73131;50.820;16.274;2024-02-23T05:34:52;9.30;99.90
36442;DHT22;73131;50.820;16.274;2024-02-23T05:37:55;9.20;99.90
36442;DHT22;73131;50.820;16.274;2024-02-23T05:40:59;9.20;99.90
36442;DHT22;73131;50.820;16.274;2024-02-23T05:44:03;9.20;99.90
36442;DHT22;73131;50.820;16.274;2024-02-23T05:47:06;9.20;99.90
36442;DHT22;73131;50.820;16.274;2024-02-23T05:50:12;9.20;99.90
36442;DHT22;73131;50.820;16.274;2024-02-23T05:53:15;9.20;99.90
36442;DHT22;73131;50.820;16.274;2024-02-23T05:56:17;9.20;99.90
36442;DHT22;73131;50.820;16.274;2024-02-23T05:59:18;9.20;99.90
36442;DHT22;73131;50.820;16.274;2024-02-23T06:02:19;9.20;99.90
36442;DHT22;73131;50.820;16.274;2024-02-23T06:05:20;9.20;99.90
36442;DHT22;73131;50.820;16.274;2024-02-23T06:08:21;9.10;99.90
36442;DHT22;73131;50.820;16.274;2024-02-23T06:11:22;9.10;99.90
36442;DHT22;73131;50.820;16.274;2024-02-23T06:14:23;9.10;99.90
36442;DHT22;73131;50.820;16.274;2024-02-23T06:17:24;9.10;99.90
36442;DHT22;73131;50.820;16.274;2024-02-23T06:20:28;9.10;99.90
36442;DHT22;73131;50.820;16.274;2024-02-23T06:23:31;9.10;99.90
36442;DHT22;73131;50.820;16.274;2024-02-23T06:26:32;9.10;99.90
36442;DHT22;73131;50.820;16.274;2024-02-23T06:29:38;9.10;99.90
36442;DHT22;73131;50.820;16.274;2024-02-23T06:32:39;9.10;99.90
36442;DHT22;73131;50.820;16.274;2024-02-23T06:35:40;9.10;99.90
36442;DHT22;73131;50.820;16.274;2024-02-23T06:38:41;9.20;99.90
36442;DHT22;73131;50.820;16.274;2024-02-23T06:41:42;9.20;99.90
36442;DHT22;73131;50.820;16.274;2024-02-23T06:44:45;9.10;99.90
36442;DHT22;73131;50.820;16.274;2024-02-23T06:47:46;9.20;99.90
36442;DHT22;73131;50.820;16.274;2024-02-23T06:50:47;9.20;99.90
36442;DHT22;73131;50.820;16.274;2024-02-23T06:53:50;9.20;99.90
36442;DHT22;73131;50.820;16.274;2024-02-23T06:56:51;9.20;99.90
36442;DHT22;73131;50.820;16.274;2024-02-23T06:59:54;9.30;99.90
36442;DHT22;73131;50.820;16.274;2024-02-23T07:02:55;9.30;99.90
36442;DHT22;73131;50.820;16.274;2024-02-23T07:05:59;9.30;99.90
36442;DHT22;73131;50.820;16.274;2024-02-23T07:09:00;9.30;99.90
36442;DHT22;73131;50.820;16.274;2024-02-23T07:12:02;9.30;99.90
36442;DHT22;73131;50.820;16.274;2024-02-23T07:15:06;9.40;99.90
36442;DHT22;73131;50.820;16.274;2024-02-23T07:18:07;9.40;99.90
36442;DHT22;73131;50.820;16.274;2024-02-23T07:21:12;9.50;99.90
36442;DHT22;73131;50.820;16.274;2024-02-23T07:24:13;9.50;99.90
36442;DHT22;73131;50.820;16.274;2024-02-23T07:27:14;9.60;99.90
36442;DHT22;73131;50.820;16.274;2024-02-23T07:30:15;9.70;99.90
36442;DHT22;73131;50.820;16.274;2024-02-23T07:33:19;9.80;99.90
36442;DHT22;73131;50.820;16.274;2024-02-23T07:36:22;10.00;99.90
36442;DHT22;73131;50.820;16.274;2024-02-23T07:39:26;10.10;99.90
36442;DHT22;73131;50.820;16.274;2024-02-23T07:42:33;10.20;99.90
36442;DHT22;73131;50.820;16.274;2024-02-23T07:45:38;10.30;99.90
36442;DHT22;73131;50.820;16.274;2024-02-23T07:48:39;10.30;99.90
36442;DHT22;73131;50.820;16.274;2024-02-23T07:51:40;10.30;99.90
36442;DHT22;73131;50.820;16.274;2024-02-23T07:54:43;10.30;99.90
36442;DHT22;73131;50.820;16.274;2024-02-23T07:57:44;10.20;99.90
36442;DHT22;73131;50.820;16.274;2024-02-23T08:00:48;10.20;99.90
36442;DHT22;73131;50.820;16.274;2024-02-23T08:03:49;10.10;99.90
36442;DHT22;73131;50.820;16.274;2024-02-23T08:06:50;10.00;99.90
36442;DHT22;73131;50.820;16.274;2024-02-23T08:09:52;10.00;99.90
36442;DHT22;73131;50.820;16.274;2024-02-23T08:12:52;10.00;99.90
36442;DHT22;73131;50.820;16.274;2024-02-23T08:15:54;10.00;99.90
36442;DHT22;73131;50.820;16.274;2024-02-23T08:18:54;10.00;99.90
36442;DHT22;73131;50.820;16.274;2024-02-23T08:21:57;10.00;99.90
36442;DHT22;73131;50.820;16.274;2024-02-23T08:25:01;10.10;99.90
36442;DHT22;73131;50.820;16.274;2024-02-23T08:28:02;10.20;99.90
36442;DHT22;73131;50.820;16.274;2024-02-23T08:31:03;10.40;99.90
36442;DHT22;73131;50.820;16.274;2024-02-23T08:34:07;10.60;99.90
36442;DHT22;73131;50.820;16.274;2024-02-23T08:37:08;10.60;99.90
36442;DHT22;73131;50.820;16.274;2024-02-23T08:40:09;10.60;99.90
36442;DHT22;73131;50.820;16.274;2024-02-23T08:43:15;10.60;99.90
36442;DHT22;73131;50.820;16.274;2024-02-23T08:46:17;10.60;99.90
36442;DHT22;73131;50.820;16.274;2024-02-23T08:49:20;10.60;99.90
36442;DHT22;73131;50.820;16.274;2024-02-23T08:52:21;10.70;99.90
36442;DHT22;73131;50.820;16.274;2024-02-23T08:55:22;10.70;99.90
36442;DHT22;73131;50.820;16.274;2024-02-23T08:58:26;10.60;99.90
36442;DHT22;73131;50.820;16.274;2024-02-23T09:01:26;10.70;99.90
36442;DHT22;73131;50.820;16.274;2024-02-23T09:04:28;10.80;99.90
36442;DHT22;73131;50.820;16.274;2024-02-23T09:07:36;10.80;99.90
36442;DHT22;73131;50.820;16.274;2024-02-23T09:10:39;10.90;99.90
36442;DHT22;73131;50.820;16.274;2024-02-23T09:13:46;10.90;99.90
36442;DHT22;73131;50.820;16.274;2024-02-23T09:16:47;10.90;99.90
36442;DHT22;73131;50.820;16.274;2024-02-23T09:19:51;10.70;99.90
36442;DHT22;73131;50.820;16.274;2024-02-23T09:22:52;10.60;99.90
36442;DHT22;73131;50.820;16.274;2024-02-23T09:25:53;10.60;99.90
36442;DHT22;73131;50.820;16.274;2024-02-23T09:28:54;10.60;99.90
36442;DHT22;73131;50.820;16.274;2024-02-23T09:31:58;10.70;99.90
36442;DHT22;73131;50.820;16.274;2024-02-23T09:34:59;10.80;99.90
36442;DHT22;73131;50.820;16.274;2024-02-23T09:38:06;10.80;99.90
36442;DHT22;73131;50.820;16.274;2024-02-23T09:41:21;10.80;99.90
36442;DHT22;73131;50.820;16.274;2024-02-23T09:44:23;10.80;99.90
36442;DHT22;73131;50.820;16.274;2024-02-23T09:47:27;10.80;99.90
36442;DHT22;73131;50.820;16.274;2024-02-23T09:50:29;10.80;99.90
36442;DHT22;73131;50.820;16.274;2024-02-23T09:53:37;10.90;99.90
36442;DHT22;73131;50.820;16.274;2024-02-23T09:56:38;11.00;99.90
36442;DHT22;73131;50.820;16.274;2024-02-23T09:59:40;11.00;99.90
36442;DHT22;73131;50.820;16.274;2024-02-23T10:02:42;11.10;99.90
36442;DHT22;73131;50.820;16.274;2024-02-23T10:05:44;11.20;99.90
36442;DHT22;73131;50.820;16.274;2024-02-23T10:08:49;11.20;99.90
36442;DHT22;73131;50.820;16.274;2024-02-23T10:11:53;11.20;99.90
36442;DHT22;73131;50.820;16.274;2024-02-23T10:14:59;11.20;99.90
36442;DHT22;73131;50.820;16.274;2024-02-23T10:18:05;11.00;99.90
36442;DHT22;73131;50.820;16.274;2024-02-23T10:21:10;10.90;99.90
36442;DHT22;73131;50.820;16.274;2024-02-23T10:24:16;11.00;99.90
36442;DHT22;73131;50.820;16.274;2024-02-23T10:27:25;11.00;99.90
36442;DHT22;73131;50.820;16.274;2024-02-23T10:30:29;11.00;99.90
36442;DHT22;73131;50.820;16.274;2024-02-23T10:33:36;10.80;99.90
36442;DHT22;73131;50.820;16.274;2024-02-23T10:36:45;10.70;99.90
36442;DHT22;73131;50.820;16.274;2024-02-23T10:39:50;10.60;99.90
36442;DHT22;73131;50.820;16.274;2024-02-23T10:42:56;10.50;99.90
36442;DHT22;73131;50.820;16.274;2024-02-23T10:46:03;10.30;99.90
36442;DHT22;73131;50.820;16.274;2024-02-23T10:49:10;10.10;99.90
36442;DHT22;73131;50.820;16.274;2024-02-23T10:52:15;9.90;99.90
36442;DHT22;73131;50.820;16.274;2024-02-23T10:55:20;9.80;99.90
36442;DHT22;73131;50.820;16.274;2024-02-23T10:58:22;9.80;99.90
36442;DHT22;73131;50.820;16.274;2024-02-23T11:01:26;9.70;99.90
36442;DHT22;73131;50.820;16.274;2024-02-23T11:04:35;9.50;99.90
36442;DHT22;73131;50.820;16.274;2024-02-23T11:07:42;9.40;99.90
36442;DHT22;73131;50.820;16.274;2024-02-23T11:10:52;9.30;99.90
36442;DHT22;73131;50.820;16.274;2024-02-23T11:13:56;9.20;99.90
36442;DHT22;73131;50.820;16.274;2024-02-23T11:17:00;9.30;99.90
36442;DHT22;73131;50.820;16.274;2024-02-23T11:20:05;9.30;99.90
36442;DHT22;73131;50.820;16.274;2024-02-23T11:23:15;9.30;99.90
36442;DHT22;73131;50.820;16.274;2024-02-23T11:26:18;9.30;99.90
36442;DHT22;73131;50.820;16.274;2024-02-23T11:29:19;9.20;99.90
36442;DHT22;73131;50.820;16.274;2024-02-23T11:32:41;9.10;99.90
36442;DHT22;73131;50.820;16.274;2024-02-23T11:35:49;9.10;99.90
36442;DHT22;73131;50.820;16.274;2024-02-23T11:38:54;9.10;99.90
36442;DHT22;73131;50.820;16.274;2024-02-23T11:41:58;9.10;99.90
36442;DHT22;73131;50.820;16.274;2024-02-23T11:45:01;9.10;99.90
36442;DHT22;73131;50.820;16.274;2024-02-23T11:48:05;9.10;99.90
36442;DHT22;73131;50.820;16.274;2024-02-23T11:51:06;9.20;99.90
36442;DHT22;73131;50.820;16.274;2024-02-23T11:54:08;9.10;99.90
36442;DHT22;73131;50.820;16.274;2024-02-23T11:57:10;9.10;99.90
36442;DHT22;73131;50.820;16.274;2024-02-23T12:00:11;9.00;99.90
36442;DHT22;73131;50.820;16.274;2024-02-23T12:03:15;9.00;99.90
36442;DHT22;73131;50.820;16.274;2024-02-23T12:06:22;9.10;99.90
36442;DHT22;73131;50.820;16.274;2024-02-23T12:09:29;9.20;99.90
36442;DHT22;73131;50.820;16.274;2024-02-23T12:12:33;9.10;99.90
36442;DHT22;73131;50.820;16.274;2024-02-23T12:15:35;9.20;99.90
36442;DHT22;73131;50.820;16.274;2024-02-23T12:18:40;9.20;99.90
36442;DHT22;73131;50.820;16.274;2024-02-23T12:21:45;9.20;99.90
36442;DHT22;73131;50.820;16.274;2024-02-23T12:24:46;9.20;99.90
36442;DHT22;73131;50.820;16.274;2024-02-23T12:27:54;9.10;99.90
36442;DHT22;73131;50.820;16.274;2024-02-23T12:31:09;9.00;99.90
36442;DHT22;73131;50.820;16.274;2024-02-23T12:34:15;9.00;99.90
36442;DHT22;73131;50.820;16.274;2024-02-23T12:37:17;9.00;99.90
36442;DHT22;73131;50.820;16.274;2024-02-23T12:40:22;8.90;99.90
36442;DHT22;73131;50.820;16.274;2024-02-23T12:43:23;8.90;99.90
36442;DHT22;73131;50.820;16.274;2024-02-23T12:46:32;8.80;99.90
36442;DHT22;73131;50.820;16.274;2024-02-23T12:49:36;8.80;99.90
36442;DHT22;73131;50.820;16.274;2024-02-23T12:52:40;8.80;99.90
36442;DHT22;73131;50.820;16.274;2024-02-23T12:55:43;8.90;99.90
36442;DHT22;73131;50.820;16.274;2024-02-23T12:58:47;8.80;99.90
36442;DHT22;73131;50.820;16.274;2024-02-23T13:01:47;8.80;99.90
36442;DHT22;73131;50.820;16.274;2024-02-23T13:04:49;8.80;99.90
36442;DHT22;73131;50.820;16.274;2024-02-23T13:07:57;8.80;99.90
36442;DHT22;73131;50.820;16.274;2024-02-23T13:10:58;8.90;99.90
36442;DHT22;73131;50.820;16.274;2024-02-23T13:14:17;8.80;99.90
36442;DHT22;73131;50.820;16.274;2024-02-23T13:17:21;8.90;99.90
36442;DHT22;73131;50.820;16.274;2024-02-23T13:20:25;8.80;99.90
36442;DHT22;73131;50.820;16.274;2024-02-23T13:23:38;8.80;99.90
36442;DHT22;73131;50.820;16.274;2024-02-23T13:26:42;8.80;99.90
36442;DHT22;73131;50.820;16.274;2024-02-23T13:29:42;8.80;99.90
36442;DHT22;73131;50.820;16.274;2024-02-23T13:32:46;8.80;99.90
36442;DHT22;73131;50.820;16.274;2024-02-23T13:35:47;8.90;99.90
36442;DHT22;73131;50.820;16.274;2024-02-23T13:38:48;9.00;99.90
36442;DHT22;73131;50.820;16.274;2024-02-23T13:41:50;9.10;99.90
36442;DHT22;73131;50.820;16.274;2024-02-23T13:44:54;9.30;99.90
36442;DHT22;73131;50.820;16.274;2024-02-23T13:48:02;9.40;99.90
36442;DHT22;73131;50.820;16.274;2024-02-23T13:51:04;9.50;99.90
36442;DHT22;73131;50.820;16.274;2024-02-23T13:54:09;9.40;99.90
36442;DHT22;73131;50.820;16.274;2024-02-23T13:57:10;9.30;99.90
36442;DHT22;73131;50.820;16.274;2024-02-23T14:00:12;9.00;99.90
36442;DHT22;73131;50.820;16.274;2024-02-23T14:03:21;8.90;99.90
36442;DHT22;73131;50.820;16.274;2024-02-23T14:06:23;8.80;99.90
36442;DHT22;73131;50.820;16.274;2024-02-23T14:09:27;8.70;99.90
36442;DHT22;73131;50.820;16.274;2024-02-23T14:12:30;8.60;99.90
36442;DHT22;73131;50.820;16.274;2024-02-23T14:15:32;8.60;99.90
36442;DHT22;73131;50.820;16.274;2024-02-23T14:18:35;8.50;99.90
36442;DHT22;73131;50.820;16.274;2024-02-23T14:21:38;8.60;99.90
36442;DHT22;73131;50.820;16.274;2024-02-23T14:24:39;8.50;99.90
36442;DHT22;73131;50.820;16.274;2024-02-23T14:27:42;8.50;99.90
36442;DHT22;73131;50.820;16.274;2024-02-23T14:30:43;8.50;99.90
36442;DHT22;73131;50.820;16.274;2024-02-23T14:33:45;8.70;99.90
36442;DHT22;73131;50.820;16.274;2024-02-23T14:36:53;8.60;99.90
36442;DHT22;73131;50.820;16.274;2024-02-23T14:39:59;8.70;99.90
36442;DHT22;73131;50.820;16.274;2024-02-23T14:43:04;8.80;99.90
36442;DHT22;73131;50.820;16.274;2024-02-23T14:46:06;8.90;99.90
36442;DHT22;73131;50.820;16.274;2024-02-23T14:49:09;9.00;99.90
36442;DHT22;73131;50.820;16.274;2024-02-23T14:52:11;9.10;99.90
36442;DHT22;73131;50.820;16.274;2024-02-23T14:55:13;9.00;99.90
36442;DHT22;73131;50.820;16.274;2024-02-23T14:58:17;9.00;99.90
36442;DHT22;73131;50.820;16.274;2024-02-23T15:01:18;9.00;99.90
36442;DHT22;73131;50.820;16.274;2024-02-23T15:04:31;9.00;99.90
36442;DHT22;73131;50.820;16.274;2024-02-23T15:07:33;9.00;99.90
36442;DHT22;73131;50.820;16.274;2024-02-23T15:10:34;8.90;99.90
36442;DHT22;73131;50.820;16.274;2024-02-23T15:13:35;8.90;99.90
36442;DHT22;73131;50.820;16.274;2024-02-23T15:16:36;8.90;99.90
36442;DHT22;73131;50.820;16.274;2024-02-23T15:19:38;8.80;99.90
36442;DHT22;73131;50.820;16.274;2024-02-23T15:22:46;8.80;99.90
36442;DHT22;73131;50.820;16.274;2024-02-23T15:25:52;8.70;99.90
36442;DHT22;73131;50.820;16.274;2024-02-23T15:28:56;8.70;99.90
36442;DHT22;73131;50.820;16.274;2024-02-23T15:31:59;8.70;99.90
36442;DHT22;73131;50.820;16.274;2024-02-23T15:35:00;8.70;99.90
36442;DHT22;73131;50.820;16.274;2024-02-23T15:38:06;8.60;99.90
36442;DHT22;73131;50.820;16.274;2024-02-23T15:41:07;8.60;99.90
36442;DHT22;73131;50.820;16.274;2024-02-23T15:44:13;8.60;99.90
36442;DHT22;73131;50.820;16.274;2024-02-23T15:47:14;8.60;99.90
36442;DHT22;73131;50.820;16.274;2024-02-23T15:50:18;8.50;99.90
36442;DHT22;73131;50.820;16.274;2024-02-23T15:53:20;8.40;99.90
36442;DHT22;73131;50.820;16.274;2024-02-23T15:56:24;8.40;99.90
36442;DHT22;73131;50.820;16.274;2024-02-23T15:59:30;8.20;99.90
36442;DHT22;73131;50.820;16.274;2024-02-23T16:02:32;8.10;99.90
36442;DHT22;73131;50.820;16.274;2024-02-23T16:05:32;8.00;99.90
36442;DHT22;73131;50.820;16.274;2024-02-23T16:08:41;8.10;99.90
36442;DHT22;73131;50.820;16.274;2024-02-23T16:11:46;8.10;99.90
36442;DHT22;73131;50.820;16.274;2024-02-23T16:14:50;8.20;99.90
36442;DHT22;73131;50.820;16.274;2024-02-23T16:17:53;8.20;99.90
36442;DHT22;73131;50.820;16.274;2024-02-23T16:20:58;8.10;99.90
36442;DHT22;73131;50.820;16.274;2024-02-23T16:24:05;8.20;99.90
36442;DHT22;73131;50.820;16.274;2024-02-23T16:27:06;8.10;99.90
36442;DHT22;73131;50.820;16.274;2024-02-23T16:30:11;8.00;99.90
36442;DHT22;73131;50.820;16.274;2024-02-23T16:33:14;8.00;99.90
36442;DHT22;73131;50.820;16.274;2024-02-23T16:36:15;7.90;99.90
36442;DHT22;73131;50.820;16.274;2024-02-23T16:39:29;7.90;99.90
36442;DHT22;73131;50.820;16.274;2024-02-23T16:42:35;7.80;99.90
36442;DHT22;73131;50.820;16.274;2024-02-23T16:45:35;7.70;99.90
36442;DHT22;73131;50.820;16.274;2024-02-23T16:48:37;7.70;99.90
36442;DHT22;73131;50.820;16.274;2024-02-23T16:51:48;7.60;99.90
36442;DHT22;73131;50.820;16.274;2024-02-23T16:54:51;7.60;99.90
36442;DHT22;73131;50.820;16.274;2024-02-23T16:57:57;7.60;99.90
36442;DHT22;73131;50.820;16.274;2024-02-23T17:01:04;7.60;99.90
36442;DHT22;73131;50.820;16.274;2024-02-23T17:04:05;7.60;99.90
36442;DHT22;73131;50.820;16.274;2024-02-23T17:07:12;7.60;99.90
36442;DHT22;73131;50.820;16.274;2024-02-23T17:10:15;7.60;99.90
36442;DHT22;73131;50.820;16.274;2024-02-23T17:13:17;7.60;99.90
36442;DHT22;73131;50.820;16.274;2024-02-23T17:16:18;7.70;99.90
36442;DHT22;73131;50.820;16.274;2024-02-23T17:19:19;7.70;99.90
36442;DHT22;73131;50.820;16.274;2024-02-23T17:22:26;7.70;99.90
36442;DHT22;73131;50.820;16.274;2024-02-23T17:25:31;7.60;99.90
36442;DHT22;73131;50.820;16.274;2024-02-23T17:28:33;7.60;99.90
36442;DHT22;73131;50.820;16.274;2024-02-23T17:31:38;7.60;99.90
36442;DHT22;73131;50.820;16.274;2024-02-23T17:34:42;7.50;99.90
36442;DHT22;73131;50.820;16.274;2024-02-23T17:37:48;7.50;99.90
36442;DHT22;73131;50.820;16.274;2024-02-23T17:40:51;7.50;99.90
36442;DHT22;73131;50.820;16.274;2024-02-23T17:43:54;7.50;99.90
36442;DHT22;73131;50.820;16.274;2024-02-23T17:46:55;7.60;99.90
36442;DHT22;73131;50.820;16.274;2024-02-23T17:49:59;7.60;99.90
36442;DHT22;73131;50.820;16.274;2024-02-23T17:53:05;7.60;99.90
36442;DHT22;73131;50.820;16.274;2024-02-23T17:56:09;7.60;99.90
36442;DHT22;73131;50.820;16.274;2024-02-23T17:59:10;7.60;99.90
36442;DHT22;73131;50.820;16.274;2024-02-23T18:02:14;7.60;99.90
36442;DHT22;73131;50.820;16.274;2024-02-23T18:05:15;7.50;99.90
36442;DHT22;73131;50.820;16.274;2024-02-23T18:08:23;7.50;99.90
36442;DHT22;73131;50.820;16.274;2024-02-23T18:11:31;7.50;99.90
36442;DHT22;73131;50.820;16.274;2024-02-23T18:14:35;7.50;99.90
36442;DHT22;73131;50.820;16.274;2024-02-23T18:17:36;7.40;99.90
36442;DHT22;73131;50.820;16.274;2024-02-23T18:20:38;7.30;99.90
36442;DHT22;73131;50.820;16.274;2024-02-23T18:23:46;7.30;99.90
36442;DHT22;73131;50.820;16.274;2024-02-23T18:26:59;7.20;99.90
36442;DHT22;73131;50.820;16.274;2024-02-23T18:30:03;7.20;99.90
36442;DHT22;73131;50.820;16.274;2024-02-23T18:33:05;7.20;99.90
36442;DHT22;73131;50.820;16.274;2024-02-23T18:36:06;7.20;99.90
36442;DHT22;73131;50.820;16.274;2024-02-23T18:39:07;7.10;99.90
36442;DHT22;73131;50.820;16.274;2024-02-23T18:42:16;7.20;99.90
36442;DHT22;73131;50.820;16.274;2024-02-23T18:45:18;7.20;99.90
36442;DHT22;73131;50.820;16.274;2024-02-23T18:48:22;7.30;99.90
36442;DHT22;73131;50.820;16.274;2024-02-23T18:51:26;7.30;99.90
36442;DHT22;73131;50.820;16.274;2024-02-23T18:54:29;7.40;99.90
36442;DHT22;73131;50.820;16.274;2024-02-23T18:57:31;7.40;99.90
36442;DHT22;73131;50.820;16.274;2024-02-23T19:00:42;7.30;99.90
36442;DHT22;73131;50.820;16.274;2024-02-23T19:03:43;7.40;99.90
36442;DHT22;73131;50.820;16.274;2024-02-23T19:06:46;7.40;99.90
36442;DHT22;73131;50.820;16.274;2024-02-23T19:09:52;7.40;99.90
36442;DHT22;73131;50.820;16.274;2024-02-23T19:12:55;7.50;99.90